sensor_id;sensor_type;location;lat;lon;timestamp;P1;durP1;ratioP1;P2;durP2;ratioP2
52210;SDS011;38179;52.756;6.906;2022-10-31T00:01:16;27.98;;;24.60;;
52210;SDS011;38179;52.756;6.906;2022-10-31T00:03:44;26.60;;;23.85;;
52210;SDS011;38179;52.756;6.906;2022-10-31T00:06:10;26.90;;;23.95;;
52210;SDS011;38179;52.756;6.906;2022-10-31T00:08:36;30.00;;;24.73;;
52210;SDS011;38179;52.756;6.906;2022-10-31T00:11:02;28.27;;;25.27;;
52210;SDS011;38179;52.756;6.906;2022-10-31T00:13:28;28.42;;;24.38;;
52210;SDS011;38179;52.756;6.906;2022-10-31T00:15:54;29.15;;;25.10;;
52210;SDS011;38179;52.756;6.906;2022-10-31T00:18:20;30.73;;;25.83;;
52210;SDS011;38179;52.756;6.906;2022-10-31T00:20:46;33.03;;;25.85;;
52210;SDS011;38179;52.756;6.906;2022-10-31T00:23:12;30.55;;;25.42;;
52210;SDS011;38179;52.756;6.906;2022-10-31T00:25:38;30.83;;;25.52;;
52210;SDS011;38179;52.756;6.906;2022-10-31T00:28:06;30.13;;;26.40;;
52210;SDS011;38179;52.756;6.906;2022-10-31T00:30:34;30.10;;;25.50;;
52210;SDS011;38179;52.756;6.906;2022-10-31T00:33:00;28.38;;;24.95;;
52210;SDS011;38179;52.756;6.906;2022-10-31T00:35:28;29.52;;;25.48;;
52210;SDS011;38179;52.756;6.906;2022-10-31T00:37:54;30.05;;;25.60;;
52210;SDS011;38179;52.756;6.906;2022-10-31T00:40:19;34.42;;;26.63;;
52210;SDS011;38179;52.756;6.906;2022-10-31T00:42:45;29.33;;;24.92;;
52210;SDS011;38179;52.756;6.906;2022-10-31T00:45:11;28.13;;;25.23;;
52210;SDS011;38179;52.756;6.906;2022-10-31T00:47:37;30.92;;;25.73;;
52210;SDS011;38179;52.756;6.906;2022-10-31T00:50:04;30.75;;;24.23;;
52210;SDS011;38179;52.756;6.906;2022-10-31T00:52:30;28.67;;;25.23;;
52210;SDS011;38179;52.756;6.906;2022-10-31T00:54:56;27.50;;;24.52;;
52210;SDS011;38179;52.756;6.906;2022-10-31T00:57:22;27.38;;;24.45;;
52210;SDS011;38179;52.756;6.906;2022-10-31T00:59:48;24.70;;;22.13;;
52210;SDS011;38179;52.756;6.906;2022-10-31T01:02:14;28.25;;;25.30;;
52210;SDS011;38179;52.756;6.906;2022-10-31T01:04:40;26.45;;;23.58;;
52210;SDS011;38179;52.756;6.906;2022-10-31T01:07:06;25.95;;;23.35;;
52210;SDS011;38179;52.756;6.906;2022-10-31T01:09:32;25.65;;;23.08;;
52210;SDS011;38179;52.756;6.906;2022-10-31T01:11:58;26.48;;;23.52;;
52210;SDS011;38179;52.756;6.906;2022-10-31T01:14:24;28.17;;;24.42;;
52210;SDS011;38179;52.756;6.906;2022-10-31T01:16:50;25.38;;;22.80;;
52210;SDS011;38179;52.756;6.906;2022-10-31T01:19:16;29.80;;;24.15;;
52210;SDS011;38179;52.756;6.906;2022-10-31T01:21:42;25.45;;;22.33;;
52210;SDS011;38179;52.756;6.906;2022-10-31T01:24:08;24.92;;;22.42;;
52210;SDS011;38179;52.756;6.906;2022-10-31T01:26:34;27.17;;;24.38;;
52210;SDS011;38179;52.756;6.906;2022-10-31T01:29:01;26.10;;;23.27;;
52210;SDS011;38179;52.756;6.906;2022-10-31T01:31:32;27.70;;;24.20;;
52210;SDS011;38179;52.756;6.906;2022-10-31T01:34:00;26.45;;;23.48;;
52210;SDS011;38179;52.756;6.906;2022-10-31T01:36:30;26.50;;;23.42;;
52210;SDS011;38179;52.756;6.906;2022-10-31T01:39:03;27.30;;;22.63;;
52210;SDS011;38179;52.756;6.906;2022-10-31T01:41:32;26.63;;;23.13;;
52210;SDS011;38179;52.756;6.906;2022-10-31T01:44:01;31.38;;;25.02;;
52210;SDS011;38179;52.756;6.906;2022-10-31T01:46:55;25.83;;;23.17;;
52210;SDS011;38179;52.756;6.906;2022-10-31T01:49:32;25.98;;;23.05;;
52210;SDS011;38179;52.756;6.906;2022-10-31T01:52:18;27.38;;;23.33;;
52210;SDS011;38179;52.756;6.906;2022-10-31T01:54:46;25.90;;;23.30;;
52210;SDS011;38179;52.756;6.906;2022-10-31T01:57:18;30.35;;;23.70;;
52210;SDS011;38179;52.756;6.906;2022-10-31T01:59:46;27.73;;;24.75;;
52210;SDS011;38179;52.756;6.906;2022-10-31T02:02:15;27.20;;;23.67;;
52210;SDS011;38179;52.756;6.906;2022-10-31T02:04:42;26.55;;;23.63;;
52210;SDS011;38179;52.756;6.906;2022-10-31T02:07:18;26.05;;;23.42;;
52210;SDS011;38179;52.756;6.906;2022-10-31T02:09:49;27.63;;;24.35;;
52210;SDS011;38179;52.756;6.906;2022-10-31T02:12:18;26.52;;;23.77;;
52210;SDS011;38179;52.756;6.906;2022-10-31T02:14:45;23.75;;;21.38;;
52210;SDS011;38179;52.756;6.906;2022-10-31T02:17:12;26.45;;;22.83;;
52210;SDS011;38179;52.756;6.906;2022-10-31T02:30:18;24.60;;;22.23;;
52210;SDS011;38179;52.756;6.906;2022-10-31T02:32:51;25.88;;;21.67;;
52210;SDS011;38179;52.756;6.906;2022-10-31T02:36:01;22.13;;;20.02;;
52210;SDS011;38179;52.756;6.906;2022-10-31T02:38:45;22.65;;;20.42;;
52210;SDS011;38179;52.756;6.906;2022-10-31T02:42:17;24.25;;;21.77;;
52210;SDS011;38179;52.756;6.906;2022-10-31T02:44:22;24.02;;;21.60;;
52210;SDS011;38179;52.756;6.906;2022-10-31T02:47:16;21.55;;;19.45;;
52210;SDS011;38179;52.756;6.906;2022-10-31T02:55:12;19.90;;;18.20;;
52210;SDS011;38179;52.756;6.906;2022-10-31T02:57:59;20.58;;;18.77;;
52210;SDS011;38179;52.756;6.906;2022-10-31T03:00:34;19.38;;;17.67;;
52210;SDS011;38179;52.756;6.906;2022-10-31T03:03:11;18.92;;;17.23;;
52210;SDS011;38179;52.756;6.906;2022-10-31T03:06:02;19.30;;;17.52;;
52210;SDS011;38179;52.756;6.906;2022-10-31T03:08:41;18.95;;;17.27;;
52210;SDS011;38179;52.756;6.906;2022-10-31T03:11:29;18.48;;;16.88;;
52210;SDS011;38179;52.756;6.906;2022-10-31T03:15:04;19.23;;;17.38;;
52210;SDS011;38179;52.756;6.906;2022-10-31T03:17:07;17.63;;;16.13;;
52210;SDS011;38179;52.756;6.906;2022-10-31T03:19:55;17.48;;;16.02;;
52210;SDS011;38179;52.756;6.906;2022-10-31T03:22:27;16.65;;;15.02;;
52210;SDS011;38179;52.756;6.906;2022-10-31T03:24:54;16.95;;;15.55;;
52210;SDS011;38179;52.756;6.906;2022-10-31T03:27:26;17.83;;;16.33;;
52210;SDS011;38179;52.756;6.906;2022-10-31T03:29:56;15.02;;;13.93;;
52210;SDS011;38179;52.756;6.906;2022-10-31T03:32:30;15.38;;;14.18;;
52210;SDS011;38179;52.756;6.906;2022-10-31T03:35:14;16.35;;;15.05;;
52210;SDS011;38179;52.756;6.906;2022-10-31T03:37:43;15.10;;;13.90;;
52210;SDS011;38179;52.756;6.906;2022-10-31T03:40:10;16.73;;;15.15;;
52210;SDS011;38179;52.756;6.906;2022-10-31T03:42:39;16.33;;;14.93;;
52210;SDS011;38179;52.756;6.906;2022-10-31T03:45:15;16.48;;;15.18;;
52210;SDS011;38179;52.756;6.906;2022-10-31T03:47:51;16.58;;;14.88;;
52210;SDS011;38179;52.756;6.906;2022-10-31T03:50:19;16.05;;;14.75;;
52210;SDS011;38179;52.756;6.906;2022-10-31T03:52:51;15.93;;;14.43;;
52210;SDS011;38179;52.756;6.906;2022-10-31T03:55:32;15.38;;;14.18;;
52210;SDS011;38179;52.756;6.906;2022-10-31T03:58:06;14.60;;;13.48;;
52210;SDS011;38179;52.756;6.906;2022-10-31T04:00:37;16.05;;;14.63;;
52210;SDS011;38179;52.756;6.906;2022-10-31T04:03:09;16.60;;;15.18;;
52210;SDS011;38179;52.756;6.906;2022-10-31T04:05:39;15.68;;;14.38;;
52210;SDS011;38179;52.756;6.906;2022-10-31T04:08:08;14.83;;;13.67;;
52210;SDS011;38179;52.756;6.906;2022-10-31T04:10:39;15.02;;;13.85;;
52210;SDS011;38179;52.756;6.906;2022-10-31T04:13:07;16.27;;;14.88;;
52210;SDS011;38179;52.756;6.906;2022-10-31T04:15:39;16.15;;;14.70;;
52210;SDS011;38179;52.756;6.906;2022-10-31T04:18:08;15.77;;;14.32;;
52210;SDS011;38179;52.756;6.906;2022-10-31T04:20:35;16.30;;;14.90;;
52210;SDS011;38179;52.756;6.906;2022-10-31T04:25:30;49.05;;;16.30;;
52210;SDS011;38179;52.756;6.906;2022-10-31T04:27:56;32.15;;;15.32;;
52210;SDS011;38179;52.756;6.906;2022-10-31T04:30:22;14.50;;;13.15;;
52210;SDS011;38179;52.756;6.906;2022-10-31T04:32:48;24.60;;;13.73;;
52210;SDS011;38179;52.756;6.906;2022-10-31T04:35:14;14.32;;;13.15;;
52210;SDS011;38179;52.756;6.906;2022-10-31T04:37:41;14.85;;;13.55;;
52210;SDS011;38179;52.756;6.906;2022-10-31T04:40:07;15.02;;;13.80;;
52210;SDS011;38179;52.756;6.906;2022-10-31T04:42:33;15.25;;;13.70;;
52210;SDS011;38179;52.756;6.906;2022-10-31T04:44:59;14.40;;;13.25;;
52210;SDS011;38179;52.756;6.906;2022-10-31T04:47:25;14.00;;;12.90;;
52210;SDS011;38179;52.756;6.906;2022-10-31T04:49:51;14.18;;;12.93;;
52210;SDS011;38179;52.756;6.906;2022-10-31T04:52:17;14.57;;;13.38;;
52210;SDS011;38179;52.756;6.906;2022-10-31T04:54:42;14.15;;;13.05;;
52210;SDS011;38179;52.756;6.906;2022-10-31T04:57:08;15.18;;;13.88;;
52210;SDS011;38179;52.756;6.906;2022-10-31T04:59:34;15.10;;;13.88;;
52210;SDS011;38179;52.756;6.906;2022-10-31T05:02:01;15.40;;;14.20;;
52210;SDS011;38179;52.756;6.906;2022-10-31T05:04:26;34.53;;;14.90;;
52210;SDS011;38179;52.756;6.906;2022-10-31T05:06:52;17.17;;;13.60;;
52210;SDS011;38179;52.756;6.906;2022-10-31T05:09:18;13.77;;;12.77;;
52210;SDS011;38179;52.756;6.906;2022-10-31T05:11:44;14.27;;;13.07;;
52210;SDS011;38179;52.756;6.906;2022-10-31T05:14:10;14.55;;;13.35;;
52210;SDS011;38179;52.756;6.906;2022-10-31T05:16:36;14.57;;;13.48;;
52210;SDS011;38179;52.756;6.906;2022-10-31T05:19:02;13.90;;;12.80;;
52210;SDS011;38179;52.756;6.906;2022-10-31T05:21:28;14.63;;;13.52;;
52210;SDS011;38179;52.756;6.906;2022-10-31T05:23:53;14.35;;;13.25;;
52210;SDS011;38179;52.756;6.906;2022-10-31T05:26:19;14.85;;;13.68;;
52210;SDS011;38179;52.756;6.906;2022-10-31T05:28:45;14.18;;;13.07;;
52210;SDS011;38179;52.756;6.906;2022-10-31T05:31:11;14.48;;;13.38;;
52210;SDS011;38179;52.756;6.906;2022-10-31T05:33:37;14.50;;;13.30;;
52210;SDS011;38179;52.756;6.906;2022-10-31T05:36:03;32.85;;;15.40;;
52210;SDS011;38179;52.756;6.906;2022-10-31T05:38:48;16.42;;;14.52;;
52210;SDS011;38179;52.756;6.906;2022-10-31T05:41:18;15.25;;;14.00;;
52210;SDS011;38179;52.756;6.906;2022-10-31T05:43:44;15.32;;;14.13;;
52210;SDS011;38179;52.756;6.906;2022-10-31T05:46:10;15.50;;;14.30;;
52210;SDS011;38179;52.756;6.906;2022-10-31T05:48:36;15.18;;;13.77;;
52210;SDS011;38179;52.756;6.906;2022-10-31T05:51:02;14.73;;;13.52;;
52210;SDS011;38179;52.756;6.906;2022-10-31T05:53:28;15.13;;;13.73;;
52210;SDS011;38179;52.756;6.906;2022-10-31T05:55:54;15.13;;;13.93;;
52210;SDS011;38179;52.756;6.906;2022-10-31T05:58:30;15.65;;;14.35;;
52210;SDS011;38179;52.756;6.906;2022-10-31T06:01:01;14.82;;;13.60;;
52210;SDS011;38179;52.756;6.906;2022-10-31T06:03:28;16.00;;;14.68;;
52210;SDS011;38179;52.756;6.906;2022-10-31T06:05:54;15.95;;;14.55;;
52210;SDS011;38179;52.756;6.906;2022-10-31T06:08:23;16.55;;;15.15;;
52210;SDS011;38179;52.756;6.906;2022-10-31T06:10:50;17.98;;;16.42;;
52210;SDS011;38179;52.756;6.906;2022-10-31T06:13:18;19.73;;;16.58;;
52210;SDS011;38179;52.756;6.906;2022-10-31T06:15:45;18.88;;;15.75;;
52210;SDS011;38179;52.756;6.906;2022-10-31T06:18:10;23.20;;;16.92;;
52210;SDS011;38179;52.756;6.906;2022-10-31T06:20:36;23.55;;;16.30;;
52210;SDS011;38179;52.756;6.906;2022-10-31T06:23:02;17.30;;;15.70;;
52210;SDS011;38179;52.756;6.906;2022-10-31T06:25:29;18.92;;;17.23;;
52210;SDS011;38179;52.756;6.906;2022-10-31T06:27:55;18.92;;;17.25;;
52210;SDS011;38179;52.756;6.906;2022-10-31T06:30:21;17.33;;;15.82;;
52210;SDS011;38179;52.756;6.906;2022-10-31T06:32:47;17.13;;;15.73;;
52210;SDS011;38179;52.756;6.906;2022-10-31T06:35:14;18.15;;;16.65;;
52210;SDS011;38179;52.756;6.906;2022-10-31T06:37:40;18.55;;;16.88;;
52210;SDS011;38179;52.756;6.906;2022-10-31T06:40:06;20.48;;;18.35;;
52210;SDS011;38179;52.756;6.906;2022-10-31T06:42:32;19.60;;;17.80;;
52210;SDS011;38179;52.756;6.906;2022-10-31T06:44:58;20.42;;;18.38;;
52210;SDS011;38179;52.756;6.906;2022-10-31T06:47:24;20.85;;;18.92;;
52210;SDS011;38179;52.756;6.906;2022-10-31T06:49:50;19.73;;;18.02;;
52210;SDS011;38179;52.756;6.906;2022-10-31T06:52:16;20.83;;;18.83;;
52210;SDS011;38179;52.756;6.906;2022-10-31T06:54:42;19.10;;;17.40;;
52210;SDS011;38179;52.756;6.906;2022-10-31T06:57:08;19.17;;;17.48;;
52210;SDS011;38179;52.756;6.906;2022-10-31T06:59:34;18.38;;;16.80;;
52210;SDS011;38179;52.756;6.906;2022-10-31T07:01:59;22.73;;;17.55;;
52210;SDS011;38179;52.756;6.906;2022-10-31T07:04:26;19.48;;;17.50;;
52210;SDS011;38179;52.756;6.906;2022-10-31T07:06:51;18.58;;;16.83;;
52210;SDS011;38179;52.756;6.906;2022-10-31T07:09:18;18.35;;;16.75;;
52210;SDS011;38179;52.756;6.906;2022-10-31T07:11:44;18.95;;;17.33;;
52210;SDS011;38179;52.756;6.906;2022-10-31T07:14:10;19.27;;;17.58;;
52210;SDS011;38179;52.756;6.906;2022-10-31T07:16:35;19.45;;;17.55;;
52210;SDS011;38179;52.756;6.906;2022-10-31T07:19:02;43.88;;;19.02;;
52210;SDS011;38179;52.756;6.906;2022-10-31T07:21:28;24.30;;;18.00;;
52210;SDS011;38179;52.756;6.906;2022-10-31T07:26:23;29.75;;;18.95;;
52210;SDS011;38179;52.756;6.906;2022-10-31T07:28:49;21.60;;;18.48;;
52210;SDS011;38179;52.756;6.906;2022-10-31T07:31:15;21.15;;;19.00;;
52210;SDS011;38179;52.756;6.906;2022-10-31T07:33:42;19.85;;;18.05;;
52210;SDS011;38179;52.756;6.906;2022-10-31T07:36:08;20.90;;;18.27;;
52210;SDS011;38179;52.756;6.906;2022-10-31T07:38:34;23.45;;;18.83;;
52210;SDS011;38179;52.756;6.906;2022-10-31T07:41:00;21.23;;;18.85;;
52210;SDS011;38179;52.756;6.906;2022-10-31T07:43:26;22.25;;;20.13;;
52210;SDS011;38179;52.756;6.906;2022-10-31T07:45:52;24.05;;;21.63;;
52210;SDS011;38179;52.756;6.906;2022-10-31T07:48:19;28.48;;;21.10;;
52210;SDS011;38179;52.756;6.906;2022-10-31T07:50:45;30.17;;;20.38;;
52210;SDS011;38179;52.756;6.906;2022-10-31T07:53:12;21.35;;;18.98;;
52210;SDS011;38179;52.756;6.906;2022-10-31T07:55:40;21.77;;;19.52;;
52210;SDS011;38179;52.756;6.906;2022-10-31T07:58:11;24.10;;;20.02;;
52210;SDS011;38179;52.756;6.906;2022-10-31T08:00:40;33.63;;;21.45;;
52210;SDS011;38179;52.756;6.906;2022-10-31T08:03:08;33.65;;;21.15;;
52210;SDS011;38179;52.756;6.906;2022-10-31T08:05:44;23.88;;;20.83;;
52210;SDS011;38179;52.756;6.906;2022-10-31T08:08:12;35.67;;;20.65;;
52210;SDS011;38179;52.756;6.906;2022-10-31T08:10:39;30.75;;;21.85;;
52210;SDS011;38179;52.756;6.906;2022-10-31T08:13:10;27.73;;;21.48;;
52210;SDS011;38179;52.756;6.906;2022-10-31T08:15:37;24.98;;;22.50;;
52210;SDS011;38179;52.756;6.906;2022-10-31T08:20:37;30.27;;;22.38;;
52210;SDS011;38179;52.756;6.906;2022-10-31T08:23:03;26.08;;;23.30;;
52210;SDS011;38179;52.756;6.906;2022-10-31T08:25:31;30.55;;;23.70;;
52210;SDS011;38179;52.756;6.906;2022-10-31T08:27:58;25.88;;;23.38;;
52210;SDS011;38179;52.756;6.906;2022-10-31T08:30:26;25.65;;;23.23;;
52210;SDS011;38179;52.756;6.906;2022-10-31T08:32:58;26.17;;;23.60;;
52210;SDS011;38179;52.756;6.906;2022-10-31T08:35:32;26.30;;;23.70;;
52210;SDS011;38179;52.756;6.906;2022-10-31T08:37:58;28.95;;;25.83;;
52210;SDS011;38179;52.756;6.906;2022-10-31T08:40:25;27.55;;;24.70;;
52210;SDS011;38179;52.756;6.906;2022-10-31T08:42:57;28.80;;;25.90;;
52210;SDS011;38179;52.756;6.906;2022-10-31T08:45:42;28.73;;;25.73;;
52210;SDS011;38179;52.756;6.906;2022-10-31T08:48:11;25.20;;;22.63;;
52210;SDS011;38179;52.756;6.906;2022-10-31T08:50:39;26.48;;;23.88;;
52210;SDS011;38179;52.756;6.906;2022-10-31T08:53:07;27.52;;;24.92;;
52210;SDS011;38179;52.756;6.906;2022-10-31T08:55:41;30.52;;;27.23;;
52210;SDS011;38179;52.756;6.906;2022-10-31T08:58:12;29.23;;;26.23;;
52210;SDS011;38179;52.756;6.906;2022-10-31T09:00:41;29.92;;;26.88;;
52210;SDS011;38179;52.756;6.906;2022-10-31T09:03:10;33.40;;;29.80;;
52210;SDS011;38179;52.756;6.906;2022-10-31T09:05:38;36.58;;;32.67;;
52210;SDS011;38179;52.756;6.906;2022-10-31T09:08:05;34.72;;;29.67;;
52210;SDS011;38179;52.756;6.906;2022-10-31T09:10:35;36.50;;;30.83;;
52210;SDS011;38179;52.756;6.906;2022-10-31T09:13:06;33.50;;;30.00;;
52210;SDS011;38179;52.756;6.906;2022-10-31T09:15:34;38.05;;;32.80;;
52210;SDS011;38179;52.756;6.906;2022-10-31T09:18:03;35.42;;;31.60;;
52210;SDS011;38179;52.756;6.906;2022-10-31T09:20:31;39.35;;;33.08;;
52210;SDS011;38179;52.756;6.906;2022-10-31T09:22:59;40.50;;;33.45;;
52210;SDS011;38179;52.756;6.906;2022-10-31T09:25:27;37.72;;;32.50;;
52210;SDS011;38179;52.756;6.906;2022-10-31T09:27:57;37.53;;;33.53;;
52210;SDS011;38179;52.756;6.906;2022-10-31T09:30:24;44.28;;;34.70;;
52210;SDS011;38179;52.756;6.906;2022-10-31T09:32:59;40.60;;;35.38;;
52210;SDS011;38179;52.756;6.906;2022-10-31T09:35:30;44.65;;;34.75;;
52210;SDS011;38179;52.756;6.906;2022-10-31T09:37:57;40.83;;;34.88;;
52210;SDS011;38179;52.756;6.906;2022-10-31T09:40:33;43.85;;;33.95;;
52210;SDS011;38179;52.756;6.906;2022-10-31T09:49:02;37.42;;;31.25;;
52210;SDS011;38179;52.756;6.906;2022-10-31T09:51:40;39.75;;;30.92;;
52210;SDS011;38179;52.756;6.906;2022-10-31T09:57:28;42.50;;;31.52;;
52210;SDS011;38179;52.756;6.906;2022-10-31T09:59:58;40.17;;;29.92;;
52210;SDS011;38179;52.756;6.906;2022-10-31T10:02:38;40.28;;;30.90;;
52210;SDS011;38179;52.756;6.906;2022-10-31T10:05:11;37.80;;;31.05;;
52210;SDS011;38179;52.756;6.906;2022-10-31T10:26:29;39.95;;;33.90;;
52210;SDS011;38179;52.756;6.906;2022-10-31T10:29:02;40.63;;;33.38;;
52210;SDS011;38179;52.756;6.906;2022-10-31T10:31:41;42.20;;;34.10;;
52210;SDS011;38179;52.756;6.906;2022-10-31T10:36:50;39.40;;;33.28;;
52210;SDS011;38179;52.756;6.906;2022-10-31T10:39:35;40.13;;;32.30;;
52210;SDS011;38179;52.756;6.906;2022-10-31T11:00:10;34.65;;;27.73;;
52210;SDS011;38179;52.756;6.906;2022-10-31T11:02:46;31.42;;;26.40;;
52210;SDS011;38179;52.756;6.906;2022-10-31T11:05:15;31.25;;;27.10;;
52210;SDS011;38179;52.756;6.906;2022-10-31T11:08:03;31.75;;;27.08;;
52210;SDS011;38179;52.756;6.906;2022-10-31T11:10:31;30.98;;;27.67;;
52210;SDS011;38179;52.756;6.906;2022-10-31T11:13:00;34.17;;;27.80;;
52210;SDS011;38179;52.756;6.906;2022-10-31T11:15:59;35.28;;;27.65;;
52210;SDS011;38179;52.756;6.906;2022-10-31T11:18:29;34.83;;;28.00;;
52210;SDS011;38179;52.756;6.906;2022-10-31T11:20:58;34.13;;;27.88;;
52210;SDS011;38179;52.756;6.906;2022-10-31T11:23:29;31.77;;;25.77;;
52210;SDS011;38179;52.756;6.906;2022-10-31T11:25:58;36.22;;;27.60;;
52210;SDS011;38179;52.756;6.906;2022-10-31T11:28:29;30.90;;;26.40;;
52210;SDS011;38179;52.756;6.906;2022-10-31T11:30:58;33.20;;;26.67;;
52210;SDS011;38179;52.756;6.906;2022-10-31T11:33:33;34.97;;;26.73;;
52210;SDS011;38179;52.756;6.906;2022-10-31T11:36:00;28.38;;;25.45;;
52210;SDS011;38179;52.756;6.906;2022-10-31T11:38:32;31.88;;;25.30;;
52210;SDS011;38179;52.756;6.906;2022-10-31T11:41:14;30.02;;;25.13;;
52210;SDS011;38179;52.756;6.906;2022-10-31T11:43:59;30.10;;;25.40;;
52210;SDS011;38179;52.756;6.906;2022-10-31T11:49:30;29.50;;;24.73;;
52210;SDS011;38179;52.756;6.906;2022-10-31T11:52:01;26.90;;;24.20;;
52210;SDS011;38179;52.756;6.906;2022-10-31T11:54:55;28.38;;;24.23;;
52210;SDS011;38179;52.756;6.906;2022-10-31T11:57:29;27.42;;;23.67;;
52210;SDS011;38179;52.756;6.906;2022-10-31T11:59:59;35.60;;;24.90;;
52210;SDS011;38179;52.756;6.906;2022-10-31T12:02:28;26.75;;;22.70;;
52210;SDS011;38179;52.756;6.906;2022-10-31T12:05:08;27.13;;;24.05;;
52210;SDS011;38179;52.756;6.906;2022-10-31T12:07:48;27.05;;;23.67;;
52210;SDS011;38179;52.756;6.906;2022-10-31T12:10:15;32.60;;;25.23;;
52210;SDS011;38179;52.756;6.906;2022-10-31T12:15:55;25.80;;;23.17;;
52210;SDS011;38179;52.756;6.906;2022-10-31T12:18:37;26.17;;;22.30;;
52210;SDS011;38179;52.756;6.906;2022-10-31T12:24:06;24.05;;;21.48;;
52210;SDS011;38179;52.756;6.906;2022-10-31T12:27:08;27.38;;;21.25;;
52210;SDS011;38179;52.756;6.906;2022-10-31T12:40:32;23.52;;;21.00;;
52210;SDS011;38179;52.756;6.906;2022-10-31T12:43:36;25.25;;;21.35;;
52210;SDS011;38179;52.756;6.906;2022-10-31T12:49:25;23.08;;;20.58;;
52210;SDS011;38179;52.756;6.906;2022-10-31T12:52:30;22.65;;;19.83;;
52210;SDS011;38179;52.756;6.906;2022-10-31T12:55:14;22.58;;;20.17;;
52210;SDS011;38179;52.756;6.906;2022-10-31T12:57:44;23.55;;;20.27;;
52210;SDS011;38179;52.756;6.906;2022-10-31T13:00:14;21.90;;;19.77;;
52210;SDS011;38179;52.756;6.906;2022-10-31T13:02:49;22.25;;;19.90;;
52210;SDS011;38179;52.756;6.906;2022-10-31T13:05:23;22.38;;;19.88;;
52210;SDS011;38179;52.756;6.906;2022-10-31T13:08:00;23.05;;;20.73;;
52210;SDS011;38179;52.756;6.906;2022-10-31T13:13:21;21.80;;;19.70;;
52210;SDS011;38179;52.756;6.906;2022-10-31T13:15:58;21.98;;;19.77;;
52210;SDS011;38179;52.756;6.906;2022-10-31T13:21:21;21.50;;;19.20;;
52210;SDS011;38179;52.756;6.906;2022-10-31T13:23:52;21.35;;;19.40;;
52210;SDS011;38179;52.756;6.906;2022-10-31T13:28:59;26.25;;;20.60;;
52210;SDS011;38179;52.756;6.906;2022-10-31T13:31:41;21.67;;;19.48;;
52210;SDS011;38179;52.756;6.906;2022-10-31T13:34:17;21.05;;;19.15;;
52210;SDS011;38179;52.756;6.906;2022-10-31T13:44:23;20.85;;;18.95;;
52210;SDS011;38179;52.756;6.906;2022-10-31T13:46:52;21.65;;;19.33;;
52210;SDS011;38179;52.756;6.906;2022-10-31T13:52:05;22.38;;;20.27;;
52210;SDS011;38179;52.756;6.906;2022-10-31T13:54:43;24.00;;;20.58;;
52210;SDS011;38179;52.756;6.906;2022-10-31T13:59:49;22.15;;;20.05;;
52210;SDS011;38179;52.756;6.906;2022-10-31T14:02:28;21.50;;;19.40;;
52210;SDS011;38179;52.756;6.906;2022-10-31T14:07:48;21.95;;;19.83;;
52210;SDS011;38179;52.756;6.906;2022-10-31T14:16:01;21.00;;;19.00;;
52210;SDS011;38179;52.756;6.906;2022-10-31T14:18:41;20.65;;;18.50;;
52210;SDS011;38179;52.756;6.906;2022-10-31T14:21:14;20.17;;;18.17;;
52210;SDS011;38179;52.756;6.906;2022-10-31T14:23:50;20.38;;;18.48;;
52210;SDS011;38179;52.756;6.906;2022-10-31T14:28:54;21.15;;;19.08;;
52210;SDS011;38179;52.756;6.906;2022-10-31T14:48:24;20.98;;;18.88;;
52210;SDS011;38179;52.756;6.906;2022-10-31T14:51:13;21.40;;;19.08;;
52210;SDS011;38179;52.756;6.906;2022-10-31T14:53:51;25.05;;;19.67;;
52210;SDS011;38179;52.756;6.906;2022-10-31T14:56:27;22.08;;;19.90;;
52210;SDS011;38179;52.756;6.906;2022-10-31T14:58:59;26.27;;;20.27;;
52210;SDS011;38179;52.756;6.906;2022-10-31T15:01:38;22.90;;;20.65;;
52210;SDS011;38179;52.756;6.906;2022-10-31T15:06:44;23.98;;;21.38;;
52210;SDS011;38179;52.756;6.906;2022-10-31T15:11:49;23.67;;;21.15;;
52210;SDS011;38179;52.756;6.906;2022-10-31T15:14:26;23.85;;;21.40;;
52210;SDS011;38179;52.756;6.906;2022-10-31T15:16:58;25.70;;;21.90;;
52210;SDS011;38179;52.756;6.906;2022-10-31T15:19:27;24.25;;;21.52;;
52210;SDS011;38179;52.756;6.906;2022-10-31T15:24:23;24.00;;;21.50;;
52210;SDS011;38179;52.756;6.906;2022-10-31T15:26:55;24.42;;;21.85;;
52210;SDS011;38179;52.756;6.906;2022-10-31T15:29:22;24.77;;;21.83;;
52210;SDS011;38179;52.756;6.906;2022-10-31T15:31:57;31.48;;;21.48;;
52210;SDS011;38179;52.756;6.906;2022-10-31T15:34:44;23.35;;;21.15;;
52210;SDS011;38179;52.756;6.906;2022-10-31T15:37:11;24.45;;;21.90;;
52210;SDS011;38179;52.756;6.906;2022-10-31T15:39:41;24.27;;;21.77;;
52210;SDS011;38179;52.756;6.906;2022-10-31T15:44:59;24.23;;;21.60;;
52210;SDS011;38179;52.756;6.906;2022-10-31T15:47:25;24.13;;;21.83;;
52210;SDS011;38179;52.756;6.906;2022-10-31T15:49:56;23.80;;;21.15;;
52210;SDS011;38179;52.756;6.906;2022-10-31T15:52:30;25.13;;;21.83;;
52210;SDS011;38179;52.756;6.906;2022-10-31T15:55:04;24.13;;;21.63;;
52210;SDS011;38179;52.756;6.906;2022-10-31T15:57:41;25.23;;;22.30;;
52210;SDS011;38179;52.756;6.906;2022-10-31T16:02:48;25.58;;;22.95;;
52210;SDS011;38179;52.756;6.906;2022-10-31T16:05:14;25.13;;;22.52;;
52210;SDS011;38179;52.756;6.906;2022-10-31T16:07:47;27.10;;;22.55;;
52210;SDS011;38179;52.756;6.906;2022-10-31T16:10:22;24.77;;;22.17;;
52210;SDS011;38179;52.756;6.906;2022-10-31T16:12:50;29.02;;;24.05;;
52210;SDS011;38179;52.756;6.906;2022-10-31T16:15:17;25.65;;;22.98;;
52210;SDS011;38179;52.756;6.906;2022-10-31T16:17:49;27.33;;;24.15;;
52210;SDS011;38179;52.756;6.906;2022-10-31T16:20:20;27.85;;;23.77;;
52210;SDS011;38179;52.756;6.906;2022-10-31T16:22:52;25.38;;;22.65;;
52210;SDS011;38179;52.756;6.906;2022-10-31T16:25:28;27.67;;;24.75;;
52210;SDS011;38179;52.756;6.906;2022-10-31T16:28:03;28.90;;;24.77;;
52210;SDS011;38179;52.756;6.906;2022-10-31T16:33:50;25.60;;;22.95;;
52210;SDS011;38179;52.756;6.906;2022-10-31T16:36:46;28.83;;;24.80;;
52210;SDS011;38179;52.756;6.906;2022-10-31T16:38:57;31.15;;;25.77;;
52210;SDS011;38179;52.756;6.906;2022-10-31T16:41:23;28.40;;;25.40;;
52210;SDS011;38179;52.756;6.906;2022-10-31T16:43:51;32.03;;;25.40;;
52210;SDS011;38179;52.756;6.906;2022-10-31T16:46:25;30.75;;;25.90;;
52210;SDS011;38179;52.756;6.906;2022-10-31T16:48:52;32.90;;;26.20;;
52210;SDS011;38179;52.756;6.906;2022-10-31T16:51:19;31.10;;;26.45;;
52210;SDS011;38179;52.756;6.906;2022-10-31T16:53:45;35.75;;;26.77;;
52210;SDS011;38179;52.756;6.906;2022-10-31T16:56:14;31.80;;;27.45;;
52210;SDS011;38179;52.756;6.906;2022-10-31T16:59:01;32.15;;;26.73;;
52210;SDS011;38179;52.756;6.906;2022-10-31T17:01:29;32.22;;;26.95;;
52210;SDS011;38179;52.756;6.906;2022-10-31T17:03:55;36.30;;;27.75;;
52210;SDS011;38179;52.756;6.906;2022-10-31T17:06:21;34.85;;;28.75;;
52210;SDS011;38179;52.756;6.906;2022-10-31T17:08:47;36.00;;;29.48;;
52210;SDS011;38179;52.756;6.906;2022-10-31T17:11:15;35.85;;;28.63;;
52210;SDS011;38179;52.756;6.906;2022-10-31T17:13:44;35.47;;;29.08;;
52210;SDS011;38179;52.756;6.906;2022-10-31T17:16:10;32.83;;;27.75;;
52210;SDS011;38179;52.756;6.906;2022-10-31T17:18:39;33.47;;;28.40;;
52210;SDS011;38179;52.756;6.906;2022-10-31T17:21:04;31.50;;;27.85;;
52210;SDS011;38179;52.756;6.906;2022-10-31T17:23:31;36.78;;;29.38;;